createdAt,value
2017-07-27T00:01:30.762Z,20.28
2017-07-27T00:03:58.425Z,20.32
2017-07-27T00:06:26.025Z,20.33
2017-07-27T00:08:53.664Z,20.37
2017-07-27T00:11:21.317Z,20.41
2017-07-27T00:13:48.941Z,20.44
2017-07-27T00:16:16.568Z,20.44
2017-07-27T00:18:44.244Z,20.33
2017-07-27T00:21:11.875Z,20.33
2017-07-27T00:23:39.508Z,20.27
2017-07-27T00:26:07.158Z,20.27
2017-07-27T00:28:34.787Z,20.34
2017-07-27T00:31:02.397Z,20.30
2017-07-27T00:33:30.075Z,20.30
2017-07-27T00:35:57.687Z,20.25
2017-07-27T00:38:25.690Z,20.20
2017-07-27T00:40:53.560Z,20.22
2017-07-27T00:43:21.618Z,20.23
2017-07-27T00:45:49.391Z,20.23
2017-07-27T00:48:17.361Z,20.22
2017-07-27T00:50:45.149Z,20.26
2017-07-27T00:53:13.091Z,20.27
2017-07-27T00:55:41.157Z,20.28
2017-07-27T00:58:08.954Z,20.25
2017-07-27T01:00:36.804Z,20.28
2017-07-27T01:03:04.661Z,20.29
2017-07-27T01:05:32.347Z,20.27
2017-07-27T01:08:00.196Z,20.28
2017-07-27T01:10:28.373Z,20.26
2017-07-27T01:12:56.226Z,20.28
2017-07-27T01:15:24.102Z,20.28
2017-07-27T01:17:51.961Z,20.22
2017-07-27T01:20:19.636Z,20.21
2017-07-27T01:22:47.496Z,20.20
2017-07-27T01:25:15.561Z,20.14
2017-07-27T01:27:43.279Z,20.08
2017-07-27T01:30:11.171Z,20.11
2017-07-27T01:32:39.178Z,20.08
2017-07-27T01:35:07.029Z,20.05
2017-07-27T01:37:34.896Z,20.04
2017-07-27T01:40:02.917Z,20.02
2017-07-27T01:42:30.852Z,19.96
2017-07-27T01:44:58.535Z,19.94
2017-07-27T01:49:57.588Z,19.81
2017-07-27T01:52:25.387Z,19.79
2017-07-27T01:54:53.121Z,19.80
2017-07-27T01:57:21.126Z,19.76
2017-07-27T01:59:48.996Z,19.71
2017-07-27T02:02:16.845Z,19.68
2017-07-27T02:04:44.789Z,19.69
2017-07-27T02:07:12.778Z,19.68
2017-07-27T02:09:40.663Z,19.73
2017-07-27T02:12:08.535Z,19.67
2017-07-27T02:14:36.374Z,19.59
2017-07-27T02:17:04.124Z,19.52
2017-07-27T02:19:32.091Z,19.50
2017-07-27T02:21:59.792Z,19.50
2017-07-27T02:24:27.648Z,19.50
2017-07-27T02:26:55.692Z,19.48
2017-07-27T02:29:23.381Z,19.48
2017-07-27T02:31:51.101Z,19.50
2017-07-27T02:34:19.128Z,19.50
2017-07-27T02:36:46.985Z,19.48
2017-07-27T02:39:14.678Z,19.41
2017-07-27T02:41:42.694Z,19.33
2017-07-27T02:44:10.394Z,19.34
2017-07-27T02:46:38.059Z,19.35
2017-07-27T02:49:05.740Z,19.35
2017-07-27T02:51:33.785Z,19.39
2017-07-27T02:54:01.501Z,19.41
2017-07-27T02:56:29.497Z,19.49
2017-07-27T02:58:57.389Z,19.49
2017-07-27T03:01:25.008Z,19.52
2017-07-27T03:03:52.684Z,19.51
2017-07-27T03:06:20.291Z,19.58
2017-07-27T03:08:47.899Z,19.52
2017-07-27T03:11:15.606Z,19.58
2017-07-27T03:13:43.244Z,19.61
2017-07-27T03:16:10.904Z,19.60
2017-07-27T03:18:38.582Z,19.66
2017-07-27T03:21:06.228Z,19.66
2017-07-27T03:23:33.843Z,19.73
2017-07-27T03:26:01.516Z,19.77
2017-07-27T03:28:29.135Z,19.80
2017-07-27T03:30:56.765Z,19.83
2017-07-27T03:33:24.418Z,19.85
2017-07-27T03:35:52.036Z,19.65
2017-07-27T03:38:19.652Z,19.78
2017-07-27T03:40:47.292Z,19.77
2017-07-27T03:43:14.916Z,19.77
2017-07-27T03:45:42.531Z,19.85
2017-07-27T03:48:10.181Z,19.93
2017-07-27T03:50:37.853Z,19.97
2017-07-27T03:53:05.452Z,20.00
2017-07-27T03:55:33.101Z,20.02
2017-07-27T03:58:00.727Z,20.08
2017-07-27T04:00:28.342Z,20.16
2017-07-27T04:02:56.019Z,20.22
2017-07-27T04:05:23.647Z,20.27
2017-07-27T04:07:51.246Z,20.25
2017-07-27T04:10:18.910Z,20.26
2017-07-27T04:12:46.541Z,20.30
2017-07-27T04:15:14.155Z,20.27
2017-07-27T04:17:41.821Z,20.19
2017-07-27T04:20:09.444Z,20.24
2017-07-27T04:22:37.075Z,20.26
2017-07-27T04:25:04.716Z,20.29
2017-07-27T04:27:32.341Z,20.36
2017-07-27T04:30:00.149Z,20.42
2017-07-27T04:32:27.836Z,20.40
2017-07-27T04:34:56.242Z,20.38
2017-07-27T04:37:23.870Z,20.41
2017-07-27T04:39:51.537Z,20.52
2017-07-27T04:42:19.159Z,20.67
2017-07-27T04:44:46.775Z,20.69
2017-07-27T04:47:14.468Z,20.79
2017-07-27T04:49:42.082Z,20.81
2017-07-27T04:52:09.691Z,21.00
2017-07-27T04:54:37.350Z,21.09
2017-07-27T04:57:16.665Z,21.21
2017-07-27T04:59:44.321Z,21.33
2017-07-27T05:02:11.965Z,21.46
2017-07-27T05:04:39.576Z,21.61
2017-07-27T05:07:07.261Z,21.77
2017-07-27T05:09:34.879Z,21.85
2017-07-27T05:12:02.497Z,21.85
2017-07-27T05:14:30.189Z,22.02
2017-07-27T05:16:57.815Z,22.29
2017-07-27T05:19:25.514Z,22.43
2017-07-27T05:21:53.192Z,22.49
2017-07-27T05:24:20.797Z,22.51
2017-07-27T05:26:48.416Z,22.52
2017-07-27T05:29:16.105Z,22.57
2017-07-27T05:31:43.722Z,22.69
2017-07-27T05:34:11.357Z,22.85
2017-07-27T05:36:39.013Z,23.04
2017-07-27T05:39:06.625Z,23.20
2017-07-27T05:41:34.256Z,23.20
2017-07-27T05:44:01.975Z,23.18
2017-07-27T05:46:29.604Z,23.03
2017-07-27T05:48:57.230Z,22.84
2017-07-27T05:51:24.941Z,22.79
2017-07-27T05:53:52.550Z,22.67
2017-07-27T05:56:20.323Z,22.43
2017-07-27T05:58:47.985Z,22.17
2017-07-27T06:01:15.601Z,22.11
2017-07-27T06:03:43.205Z,22.18
2017-07-27T06:06:10.875Z,22.20
2017-07-27T06:08:38.486Z,22.19
2017-07-27T06:11:06.110Z,22.06
2017-07-27T06:13:33.788Z,21.86
2017-07-27T06:16:01.415Z,21.81
2017-07-27T06:18:29.051Z,21.79
2017-07-27T06:20:56.759Z,21.79
2017-07-27T06:23:24.396Z,21.82
2017-07-27T06:25:52.020Z,21.79
2017-07-27T06:28:19.674Z,21.78
2017-07-27T06:30:47.374Z,21.71
2017-07-27T06:33:14.991Z,21.70
2017-07-27T06:35:42.675Z,21.64
2017-07-27T06:38:10.294Z,21.57
2017-07-27T06:40:37.908Z,21.63
2017-07-27T06:43:05.641Z,21.67
2017-07-27T06:45:33.267Z,21.77
2017-07-27T06:48:00.899Z,21.72
2017-07-27T06:50:28.559Z,21.85
2017-07-27T06:52:56.162Z,21.97
2017-07-27T06:55:23.779Z,22.08
2017-07-27T06:57:51.477Z,22.21
2017-07-27T07:00:19.114Z,22.18
2017-07-27T07:02:46.725Z,22.16
2017-07-27T07:05:14.411Z,22.20
2017-07-27T07:07:42.025Z,22.12
2017-07-27T07:10:09.649Z,21.85
2017-07-27T07:12:37.328Z,21.73
2017-07-27T07:15:04.956Z,21.70
2017-07-27T07:17:32.559Z,21.62
2017-07-27T07:20:00.247Z,21.60
2017-07-27T07:22:27.920Z,21.61
2017-07-27T07:24:55.539Z,21.57
2017-07-27T07:27:23.193Z,21.58
2017-07-27T07:29:50.817Z,21.55
2017-07-27T07:32:18.429Z,21.52
2017-07-27T07:34:46.112Z,21.44
2017-07-27T07:37:13.702Z,21.25
2017-07-27T07:39:41.314Z,21.20
2017-07-27T07:42:09.007Z,21.15
2017-07-27T07:44:36.636Z,21.08
2017-07-27T07:47:04.247Z,20.98
2017-07-27T07:49:31.923Z,20.88
2017-07-27T07:51:59.562Z,20.81
2017-07-27T07:54:27.172Z,20.70
2017-07-27T07:56:54.833Z,20.65
2017-07-27T07:59:22.497Z,20.68
2017-07-27T08:01:50.133Z,20.65
2017-07-27T08:04:17.805Z,20.55
2017-07-27T08:06:45.600Z,20.47
2017-07-27T08:09:25.125Z,20.43
2017-07-27T08:11:52.737Z,20.39
2017-07-27T08:14:20.363Z,20.30
2017-07-27T08:16:48.025Z,20.29
2017-07-27T08:19:15.644Z,20.24
2017-07-27T08:21:43.275Z,20.20
2017-07-27T08:24:11.011Z,20.16
2017-07-27T08:26:38.618Z,20.14
2017-07-27T08:29:06.224Z,20.07
2017-07-27T08:31:33.942Z,20.09
2017-07-27T08:34:01.542Z,20.07
2017-07-27T08:36:29.161Z,20.03
2017-07-27T08:38:56.839Z,20.11
2017-07-27T08:41:24.443Z,20.13
2017-07-27T08:43:52.065Z,20.04
2017-07-27T08:46:19.773Z,20.01
2017-07-27T08:48:47.375Z,20.04
2017-07-27T08:51:14.982Z,20.03
2017-07-27T08:53:42.654Z,19.95
2017-07-27T08:56:10.274Z,19.98
2017-07-27T08:58:37.873Z,20.05
2017-07-27T09:01:05.547Z,20.05
2017-07-27T09:03:33.171Z,19.98
2017-07-27T09:06:00.808Z,19.92
2017-07-27T09:08:28.505Z,19.91
2017-07-27T09:10:56.135Z,20.02
2017-07-27T09:13:23.741Z,20.10
2017-07-27T09:15:51.437Z,20.17
2017-07-27T09:18:19.061Z,20.24
2017-07-27T09:20:46.728Z,20.36
2017-07-27T09:23:14.411Z,20.45
2017-07-27T09:25:42.039Z,20.46
2017-07-27T09:28:09.731Z,20.41
2017-07-27T09:30:37.405Z,20.49
2017-07-27T09:33:05.024Z,20.41
2017-07-27T09:35:32.663Z,20.32
2017-07-27T09:38:00.337Z,20.25
2017-07-27T09:40:27.995Z,20.18
2017-07-27T09:42:55.622Z,20.19
2017-07-27T09:45:23.285Z,20.23
2017-07-27T09:47:50.921Z,20.32
2017-07-27T09:50:18.526Z,20.45
2017-07-27T09:52:46.199Z,20.56
2017-07-27T09:55:13.828Z,20.58
2017-07-27T09:57:46.832Z,20.66
2017-07-27T10:00:14.468Z,20.78
2017-07-27T10:02:42.093Z,20.78
2017-07-27T10:05:09.967Z,20.91
2017-07-27T10:07:37.628Z,20.92
2017-07-27T10:10:05.470Z,20.96
2017-07-27T10:12:33.285Z,20.97
2017-07-27T10:15:00.949Z,21.04
2017-07-27T10:17:28.563Z,21.09
2017-07-27T10:19:56.480Z,21.08
2017-07-27T10:22:24.416Z,21.16
2017-07-27T10:24:52.082Z,21.16
2017-07-27T10:27:19.740Z,21.21
2017-07-27T10:29:47.573Z,21.19
2017-07-27T10:32:15.319Z,21.15
2017-07-27T10:34:43.312Z,21.17
2017-07-27T10:37:11.013Z,21.20
2017-07-27T10:39:38.614Z,21.28
2017-07-27T10:42:06.279Z,21.37
2017-07-27T10:44:33.900Z,21.28
2017-07-27T10:47:01.541Z,21.31
2017-07-27T10:49:29.210Z,21.18
2017-07-27T10:51:56.819Z,20.90
2017-07-27T10:54:24.423Z,20.93
2017-07-27T10:56:52.104Z,20.84
2017-07-27T10:59:19.714Z,20.72
2017-07-27T11:01:47.323Z,20.63
2017-07-27T11:04:14.984Z,20.56
2017-07-27T11:06:42.747Z,20.44
2017-07-27T11:09:10.369Z,20.39
2017-07-27T11:11:38.067Z,20.18
2017-07-27T11:14:05.780Z,20.05
2017-07-27T11:16:33.598Z,19.97
2017-07-27T11:19:01.497Z,19.90
2017-07-27T11:21:29.230Z,19.72
2017-07-27T11:23:57.177Z,19.57
2017-07-27T11:26:24.915Z,19.55
2017-07-27T11:28:52.734Z,19.47
2017-07-27T11:31:20.398Z,19.49
2017-07-27T11:33:48.441Z,19.42
2017-07-27T11:36:16.331Z,19.36
2017-07-27T11:38:44.052Z,19.34
2017-07-27T11:41:11.859Z,19.38
2017-07-27T11:43:39.583Z,19.48
2017-07-27T11:46:07.191Z,19.53
2017-07-27T11:48:35.357Z,19.64
2017-07-27T11:51:03.330Z,19.78
2017-07-27T11:53:30.991Z,19.87
2017-07-27T11:55:59.064Z,19.98
2017-07-27T11:58:26.720Z,20.02
2017-07-27T12:00:54.731Z,20.01
2017-07-27T12:03:22.620Z,20.04
2017-07-27T12:05:50.252Z,20.12
2017-07-27T12:08:18.137Z,20.24
2017-07-27T12:10:46.122Z,20.33
2017-07-27T12:13:13.914Z,20.45
2017-07-27T12:15:41.527Z,20.48
2017-07-27T12:18:09.213Z,20.37
2017-07-27T12:20:36.817Z,20.27
2017-07-27T12:23:04.790Z,20.23
2017-07-27T12:25:32.479Z,20.23
2017-07-27T12:28:00.102Z,20.42
2017-07-27T12:30:27.831Z,20.43
2017-07-27T12:32:55.518Z,20.32
2017-07-27T12:35:23.469Z,20.42
2017-07-27T12:37:51.369Z,20.49
2017-07-27T12:40:19.424Z,20.40
2017-07-27T12:42:47.144Z,20.58
2017-07-27T12:45:14.964Z,20.66
2017-07-27T12:47:42.836Z,20.68
2017-07-27T12:50:10.499Z,20.90
2017-07-27T12:52:38.162Z,21.16
2017-07-27T12:55:05.827Z,21.46
2017-07-27T12:57:33.417Z,21.65
2017-07-27T13:00:01.143Z,21.88
2017-07-27T13:02:28.799Z,22.01
2017-07-27T13:04:56.654Z,22.00
2017-07-27T13:07:24.332Z,22.19
2017-07-27T13:09:52.412Z,22.14
2017-07-27T13:12:20.061Z,22.10
2017-07-27T13:14:47.733Z,22.23
2017-07-27T13:17:15.654Z,22.33
2017-07-27T13:19:43.670Z,22.34
2017-07-27T13:22:11.390Z,22.35
2017-07-27T13:24:39.022Z,22.36
2017-07-27T13:27:06.777Z,22.62
2017-07-27T13:29:34.374Z,22.88
2017-07-27T13:32:02.036Z,23.05
2017-07-27T13:34:29.640Z,23.26
2017-07-27T13:36:57.304Z,23.27
2017-07-27T13:39:25.379Z,23.43
2017-07-27T13:41:53.231Z,23.60
2017-07-27T13:44:20.904Z,23.89
2017-07-27T13:46:48.935Z,24.09
2017-07-27T13:49:16.643Z,24.28
2017-07-27T13:51:44.245Z,24.37
2017-07-27T13:54:11.965Z,24.31
2017-07-27T13:56:39.626Z,24.05
2017-07-27T13:59:07.350Z,24.11
2017-07-27T14:01:34.990Z,24.33
2017-07-27T14:04:02.598Z,24.40
2017-07-27T14:06:30.275Z,24.30
2017-07-27T14:08:58.119Z,24.11
2017-07-27T14:11:25.955Z,24.29
2017-07-27T14:13:53.546Z,24.29
2017-07-27T14:16:21.200Z,24.38
2017-07-27T14:18:48.836Z,24.32
2017-07-27T14:21:16.473Z,24.57
2017-07-27T14:23:44.168Z,24.73
2017-07-27T14:26:11.847Z,24.76
2017-07-27T14:28:39.454Z,24.70
2017-07-27T14:31:07.071Z,24.69
2017-07-27T14:33:34.731Z,24.69
2017-07-27T14:36:02.356Z,24.63
2017-07-27T14:38:31.449Z,24.45
2017-07-27T14:40:59.139Z,24.33
2017-07-27T14:43:26.743Z,24.15
2017-07-27T14:45:55.039Z,24.06
2017-07-27T14:48:23.467Z,24.02
2017-07-27T14:50:51.941Z,23.94
2017-07-27T14:53:19.578Z,23.83
2017-07-27T14:55:47.277Z,23.81
2017-07-27T14:58:14.885Z,23.87
2017-07-27T15:00:42.492Z,23.92
2017-07-27T15:03:10.154Z,23.90
2017-07-27T15:05:37.884Z,23.86
2017-07-27T15:08:06.238Z,23.75
2017-07-27T15:10:33.993Z,23.71
2017-07-27T15:13:01.759Z,23.78
2017-07-27T15:15:29.382Z,23.85
2017-07-27T15:17:57.113Z,23.92
2017-07-27T15:20:24.712Z,23.83
2017-07-27T15:22:52.304Z,23.86
2017-07-27T15:25:19.966Z,23.89
2017-07-27T15:27:47.557Z,23.85
2017-07-27T15:30:15.159Z,23.78
2017-07-27T15:32:42.922Z,23.81
2017-07-27T15:35:10.667Z,23.75
2017-07-27T15:37:38.291Z,23.56
2017-07-27T15:40:05.955Z,23.34
2017-07-27T15:42:33.604Z,23.28
2017-07-27T15:45:01.275Z,23.16
2017-07-27T15:47:28.923Z,23.22
2017-07-27T15:49:56.528Z,23.23
2017-07-27T15:52:24.154Z,23.11
2017-07-27T15:54:51.860Z,22.94
2017-07-27T15:57:19.475Z,22.99
2017-07-27T15:59:47.118Z,22.93
2017-07-27T16:02:14.804Z,22.91
2017-07-27T16:04:42.413Z,22.92
2017-07-27T16:07:10.037Z,22.89
2017-07-27T16:09:37.736Z,22.86
2017-07-27T16:12:05.511Z,22.86
2017-07-27T16:14:33.133Z,22.82
2017-07-27T16:17:00.876Z,22.67
2017-07-27T16:19:28.490Z,22.65
2017-07-27T16:21:56.096Z,22.54
2017-07-27T16:24:23.815Z,22.43
2017-07-27T16:26:51.422Z,22.32
2017-07-27T16:29:19.082Z,22.34
2017-07-27T16:31:47.151Z,22.34
2017-07-27T16:34:14.817Z,22.36
2017-07-27T16:36:42.681Z,22.39
2017-07-27T16:39:10.556Z,22.33
2017-07-27T16:41:38.159Z,22.35
2017-07-27T16:44:05.864Z,22.39
2017-07-27T16:46:33.773Z,22.34
2017-07-27T16:49:01.403Z,22.32
2017-07-27T16:51:29.249Z,22.32
2017-07-27T16:53:57.135Z,22.37
2017-07-27T16:56:24.854Z,22.40
2017-07-27T16:58:52.865Z,22.39
2017-07-27T17:01:20.643Z,22.32
2017-07-27T17:03:48.502Z,22.33
2017-07-27T17:06:16.481Z,22.37
2017-07-27T17:08:44.462Z,22.35
2017-07-27T17:11:12.057Z,22.35
2017-07-27T17:13:40.075Z,22.26
2017-07-27T17:16:07.942Z,22.25
2017-07-27T17:18:35.596Z,22.16
2017-07-27T17:21:03.262Z,22.16
2017-07-27T17:23:31.114Z,22.12
2017-07-27T17:25:58.791Z,22.08
2017-07-27T17:28:26.451Z,22.00
2017-07-27T17:30:54.343Z,21.93
2017-07-27T17:33:22.087Z,21.74
2017-07-27T17:35:50.026Z,21.68
2017-07-27T17:38:17.924Z,21.61
2017-07-27T17:40:45.762Z,21.57
2017-07-27T17:43:13.455Z,21.40
2017-07-27T17:45:41.492Z,21.32
2017-07-27T17:48:09.192Z,21.30
2017-07-27T17:50:36.850Z,21.26
2017-07-27T17:53:04.569Z,21.25
2017-07-27T17:55:32.290Z,21.26
2017-07-27T17:57:59.901Z,21.27
2017-07-27T18:00:27.749Z,21.26
2017-07-27T18:02:55.566Z,21.23
2017-07-27T18:05:23.213Z,21.21
2017-07-27T18:07:51.096Z,21.18
2017-07-27T18:10:18.753Z,21.13
2017-07-27T18:12:46.483Z,21.07
2017-07-27T18:15:14.192Z,21.03
2017-07-27T18:17:41.918Z,21.04
2017-07-27T18:20:09.812Z,20.98
2017-07-27T18:22:37.476Z,21.04
2017-07-27T18:25:05.115Z,21.04
2017-07-27T18:27:32.801Z,21.06
2017-07-27T18:30:00.824Z,21.07
2017-07-27T18:32:28.545Z,21.08
2017-07-27T18:34:56.395Z,21.03
2017-07-27T18:37:24.075Z,20.92
2017-07-27T18:39:51.935Z,20.77
2017-07-27T18:42:19.983Z,20.70
2017-07-27T18:44:47.932Z,20.64
2017-07-27T18:47:15.735Z,20.59
2017-07-27T18:49:43.506Z,20.59
2017-07-27T18:52:11.226Z,20.61
2017-07-27T18:54:39.200Z,20.63
2017-07-27T18:57:06.861Z,20.63
2017-07-27T18:59:34.640Z,20.68
2017-07-27T19:02:02.255Z,20.70
2017-07-27T19:04:29.872Z,20.76
2017-07-27T19:06:57.529Z,20.78
2017-07-27T19:09:25.156Z,20.78
2017-07-27T19:11:52.776Z,20.80
2017-07-27T19:14:20.784Z,20.73
2017-07-27T19:16:48.709Z,20.74
2017-07-27T19:19:16.305Z,20.76
2017-07-27T19:21:44.038Z,20.76
2017-07-27T19:24:11.692Z,20.73
2017-07-27T19:26:39.420Z,20.71
2017-07-27T19:29:07.235Z,20.73
2017-07-27T19:31:34.887Z,20.74
2017-07-27T19:34:02.556Z,20.69
2017-07-27T19:36:30.559Z,20.73
2017-07-27T19:38:58.282Z,20.69
2017-07-27T19:41:26.119Z,20.65
2017-07-27T19:43:53.756Z,20.65
2017-07-27T19:46:21.603Z,20.65
2017-07-27T19:48:49.341Z,20.68
2017-07-27T19:51:16.987Z,20.67
2017-07-27T19:53:44.587Z,20.67
2017-07-27T19:56:12.191Z,20.61
2017-07-27T19:58:39.845Z,20.60
2017-07-27T20:01:07.653Z,20.48
2017-07-27T20:03:35.375Z,20.56
2017-07-27T20:06:03.056Z,20.59
2017-07-27T20:08:31.047Z,20.58
2017-07-27T20:10:58.912Z,20.62
2017-07-27T20:13:26.982Z,20.66
2017-07-27T20:15:54.840Z,20.68
2017-07-27T20:18:22.575Z,20.71
2017-07-27T20:20:50.589Z,20.59
2017-07-27T20:23:18.252Z,20.61
2017-07-27T20:25:45.976Z,20.64
2017-07-27T20:28:13.779Z,20.59
2017-07-27T20:30:41.444Z,20.51
2017-07-27T20:33:09.098Z,20.53
2017-07-27T20:35:36.988Z,20.39
2017-07-27T20:38:04.659Z,20.45
2017-07-27T20:40:32.358Z,20.49
2017-07-27T20:43:00.140Z,20.48
2017-07-27T20:45:27.823Z,20.55
2017-07-27T20:47:55.443Z,20.54
2017-07-27T20:50:23.112Z,20.47
2017-07-27T20:52:50.720Z,20.45
2017-07-27T20:55:18.662Z,20.39
2017-07-27T20:57:46.647Z,20.45
2017-07-27T21:00:14.267Z,20.51
2017-07-27T21:02:41.891Z,20.46
2017-07-27T21:05:09.583Z,20.44
2017-07-27T21:07:37.196Z,20.43
2017-07-27T21:12:37.586Z,20.44
2017-07-27T21:15:05.200Z,20.47
2017-07-27T21:17:32.823Z,20.45
2017-07-27T21:20:00.490Z,20.41
2017-07-27T21:22:28.106Z,20.41
2017-07-27T21:24:56.373Z,20.33
2017-07-27T21:27:24.136Z,20.34
2017-07-27T21:29:51.747Z,20.31
2017-07-27T21:32:19.584Z,20.33
2017-07-27T21:34:47.400Z,20.34
2017-07-27T21:37:15.028Z,20.28
2017-07-27T21:39:42.662Z,20.25
2017-07-27T21:42:10.342Z,20.30
2017-07-27T21:44:37.950Z,20.21
2017-07-27T21:47:05.914Z,20.11
2017-07-27T21:49:33.587Z,20.10
2017-07-27T21:52:01.425Z,20.06
2017-07-27T21:54:29.187Z,20.03
2017-07-27T21:56:57.182Z,20.01
2017-07-27T21:59:24.928Z,19.96
2017-07-27T22:01:52.933Z,19.92
2017-07-27T22:04:20.783Z,19.89
2017-07-27T22:06:48.372Z,19.86
2017-07-27T22:09:16.110Z,19.83
2017-07-27T22:11:43.886Z,19.80
2017-07-27T22:14:11.510Z,19.79
2017-07-27T22:16:39.100Z,19.77
2017-07-27T22:19:06.762Z,19.79
2017-07-27T22:21:34.605Z,19.81
2017-07-27T22:24:02.295Z,19.84
2017-07-27T22:26:29.929Z,19.86
2017-07-27T22:28:57.806Z,19.88
2017-07-27T22:31:25.673Z,19.95
2017-07-27T22:33:53.414Z,19.93
2017-07-27T22:36:21.405Z,19.98
2017-07-27T22:38:49.148Z,19.96
2017-07-27T22:41:17.115Z,20.00
2017-07-27T22:43:45.028Z,20.08
2017-07-27T22:46:12.743Z,19.99
2017-07-27T22:48:40.737Z,20.04
2017-07-27T22:51:08.607Z,19.93
2017-07-27T22:53:36.487Z,19.90
2017-07-27T22:56:04.542Z,19.89
2017-07-27T22:58:32.144Z,19.88
2017-07-27T23:01:00.026Z,19.86
2017-07-27T23:03:27.957Z,19.84
2017-07-27T23:05:55.621Z,19.79
2017-07-27T23:08:23.399Z,19.75
2017-07-27T23:10:51.357Z,19.68
2017-07-27T23:13:18.974Z,19.68
2017-07-27T23:15:46.889Z,19.68
2017-07-27T23:18:14.925Z,19.74
2017-07-27T23:20:42.621Z,19.68
2017-07-27T23:23:10.279Z,19.73
2017-07-27T23:25:38.384Z,19.75
2017-07-27T23:28:06.209Z,19.74
2017-07-27T23:30:33.930Z,19.76
2017-07-27T23:33:01.926Z,19.74
2017-07-27T23:35:29.686Z,19.72
2017-07-27T23:37:57.657Z,19.72
2017-07-27T23:40:25.473Z,19.76
2017-07-27T23:42:53.419Z,19.72
2017-07-27T23:45:21.154Z,19.77
2017-07-27T23:47:49.124Z,19.76
2017-07-27T23:50:16.814Z,19.73
2017-07-27T23:52:44.463Z,19.68
2017-07-27T23:55:12.554Z,19.69
2017-07-27T23:57:40.216Z,19.71
